Time;durP1;ratioP1;P1;durP2;ratioP2;P2;SDS_P1;SDS_P2;PMS_P1;PMS_P2;Temp;Humidity;BMP_temperature;BMP_pressure;BME280_temperature;BME280_humidity;BME280_pressure;Samples;Min_cycle;Max_cycle;Signal;HPM_P1;HPM_P2
2022/03/15 00:00:19;;;;;;;6.40;3.80;;;;;;;;;;5093002;28;20036;-60
2022/03/15 00:02:45;;;;;;;5.95;3.90;;;;;;;;;;5093490;28;20047;-61
2022/03/15 00:05:11;;;;;;;8.07;4.22;;;;;;;;;;5092498;28;20040;-60
2022/03/15 00:07:37;;;;;;;5.35;3.70;;;;;;;;;;5092576;28;20036;-60
2022/03/15 00:10:03;;;;;;;6.28;3.67;;;;;;;;;;5093036;28;20036;-61
2022/03/15 00:12:30;;;;;;;9.13;4.22;;;;;;;;;;5092947;28;20122;-61
2022/03/15 00:14:56;;;;;;;7.07;4.57;;;;;;;;;;5092024;28;20047;-61
2022/03/15 00:17:23;;;;;;;7.30;5.05;;;;;;;;;;5092697;28;20493;-61
2022/03/15 00:19:49;;;;;;;10.23;4.40;;;;;;;;;;5092660;28;20036;-61
2022/03/15 00:22:15;;;;;;;8.77;4.40;;;;;;;;;;5092857;28;20044;-61
2022/03/15 00:24:44;;;;;;;11.43;5.35;;;;;;;;;;5091160;28;20513;-61
2022/03/15 00:27:10;;;;;;;7.68;5.40;;;;;;;;;;5092674;28;20043;-61
2022/03/15 00:29:37;;;;;;;7.25;5.10;;;;;;;;;;5090268;28;20044;-61
2022/03/15 00:32:04;;;;;;;8.52;5.32;;;;;;;;;;5092803;28;20452;-61
2022/03/15 00:34:30;;;;;;;6.32;5.28;;;;;;;;;;5091588;28;20036;-61
2022/03/15 00:36:56;;;;;;;6.88;5.55;;;;;;;;;;5092165;28;20032;-61
2022/03/15 00:39:23;;;;;;;11.05;6.85;;;;;;;;;;5091873;28;20066;-61
2022/03/15 00:41:49;;;;;;;12.90;7.72;;;;;;;;;;5090935;28;20052;-61
2022/03/15 00:44:15;;;;;;;10.50;7.43;;;;;;;;;;5091437;28;20093;-61
2022/03/15 00:46:41;;;;;;;10.32;6.85;;;;;;;;;;5092016;28;20109;-61
2022/03/15 00:49:07;;;;;;;10.07;6.75;;;;;;;;;;5092137;28;20036;-61
2022/03/15 00:51:34;;;;;;;10.65;7.05;;;;;;;;;;5092410;28;20047;-61
2022/03/15 00:54:00;;;;;;;13.27;7.57;;;;;;;;;;5091103;28;20492;-61
2022/03/15 00:56:26;;;;;;;14.93;7.32;;;;;;;;;;5092082;28;20075;-61
2022/03/15 00:58:52;;;;;;;9.50;6.80;;;;;;;;;;5089612;28;20047;-61
2022/03/15 01:01:18;;;;;;;11.43;7.15;;;;;;;;;;5092442;28;20028;-61
2022/03/15 01:03:44;;;;;;;10.82;7.63;;;;;;;;;;5091393;28;20032;-61
2022/03/15 01:06:10;;;;;;;10.88;7.22;;;;;;;;;;5091999;28;20145;-61
2022/03/15 01:08:36;;;;;;;11.90;7.88;;;;;;;;;;5091840;28;20378;-61
2022/03/15 01:11:03;;;;;;;14.18;8.07;;;;;;;;;;5091996;28;20052;-61
2022/03/15 01:13:29;;;;;;;11.13;7.53;;;;;;;;;;5090629;28;20047;-61
2022/03/15 01:15:56;;;;;;;12.45;7.05;;;;;;;;;;5091823;28;20036;-61
2022/03/15 01:18:22;;;;;;;13.18;8.25;;;;;;;;;;5091867;28;20040;-61
2022/03/15 01:20:51;;;;;;;14.05;7.43;;;;;;;;;;5092047;28;20115;-61
2022/03/15 01:23:17;;;;;;;13.80;7.18;;;;;;;;;;5091339;28;20079;-61
2022/03/15 01:25:43;;;;;;;17.25;8.40;;;;;;;;;;5090839;28;20437;-61
2022/03/15 01:28:10;;;;;;;12.82;8.27;;;;;;;;;;5091290;28;20040;-61
2022/03/15 01:30:36;;;;;;;17.42;9.23;;;;;;;;;;5091691;28;20043;-61
2022/03/15 01:33:02;;;;;;;12.13;8.27;;;;;;;;;;5091642;28;20051;-62
2022/03/15 01:35:28;;;;;;;15.93;8.32;;;;;;;;;;5090644;28;20489;-61
2022/03/15 01:37:54;;;;;;;15.52;8.93;;;;;;;;;;5081611;28;20119;-61
2022/03/15 01:40:21;;;;;;;15.85;9.13;;;;;;;;;;5100145;28;20039;-61
2022/03/15 01:42:47;;;;;;;12.95;7.93;;;;;;;;;;5094694;28;20040;-62
2022/03/15 01:45:13;;;;;;;10.85;8.15;;;;;;;;;;5086892;28;20032;-62
2022/03/15 01:47:39;;;;;;;8.40;6.15;;;;;;;;;;5087553;28;20039;-62
2022/03/15 01:50:06;;;;;;;11.38;7.15;;;;;;;;;;5089961;28;20054;-62
2022/03/15 01:52:31;;;;;;;8.43;6.80;;;;;;;;;;5087513;28;20417;-62
2022/03/15 01:54:57;;;;;;;8.70;6.05;;;;;;;;;;5084890;28;20036;-62
2022/03/15 01:57:24;;;;;;;9.05;6.60;;;;;;;;;;5090683;28;20054;-62
2022/03/15 01:59:50;;;;;;;9.38;6.55;;;;;;;;;;5091839;28;20115;-62
2022/03/15 02:02:16;;;;;;;11.00;6.97;;;;;;;;;;5091226;28;20109;-62
2022/03/15 02:04:42;;;;;;;9.95;6.68;;;;;;;;;;5090798;28;20039;-62
2022/03/15 02:07:08;;;;;;;6.38;5.07;;;;;;;;;;5091046;28;20486;-62
2022/03/15 02:09:34;;;;;;;8.90;6.30;;;;;;;;;;5090765;28;20047;-62
2022/03/15 02:12:01;;;;;;;8.63;6.43;;;;;;;;;;5090719;28;20105;-62
2022/03/15 02:14:27;;;;;;;12.15;6.97;;;;;;;;;;5090927;28;20114;-62
2022/03/15 02:16:53;;;;;;;9.65;7.00;;;;;;;;;;5091476;28;20470;-62
2022/03/15 02:19:19;;;;;;;9.80;7.30;;;;;;;;;;5091148;28;20119;-61
2022/03/15 02:21:46;;;;;;;14.05;7.50;;;;;;;;;;5089640;28;20044;-61
2022/03/15 02:24:12;;;;;;;8.48;7.55;;;;;;;;;;5089970;28;20110;-62
2022/03/15 02:26:39;;;;;;;10.18;7.70;;;;;;;;;;5090904;28;20115;-62
2022/03/15 02:29:04;;;;;;;14.13;8.18;;;;;;;;;;5090918;28;20047;-62
2022/03/15 02:31:30;;;;;;;12.63;7.50;;;;;;;;;;5090745;28;20036;-61
2022/03/15 02:33:57;;;;;;;8.68;7.10;;;;;;;;;;5088771;28;20461;-61
2022/03/15 02:36:23;;;;;;;12.13;7.15;;;;;;;;;;5091009;28;20048;-62
2022/03/15 02:38:49;;;;;;;10.63;7.20;;;;;;;;;;5090093;28;20535;-61
2022/03/15 02:41:15;;;;;;;9.48;7.18;;;;;;;;;;5090897;28;20028;-61
2022/03/15 02:43:42;;;;;;;9.27;7.20;;;;;;;;;;5090739;28;20119;-62
2022/03/15 02:46:08;;;;;;;14.50;7.75;;;;;;;;;;5091774;28;20055;-62
2022/03/15 02:48:35;;;;;;;9.73;6.63;;;;;;;;;;5094714;28;20040;-62
2022/03/15 02:51:08;;;;;;;9.43;7.30;;;;;;;;;;5093298;28;20074;-61
2022/03/15 02:53:35;;;;;;;12.45;8.25;;;;;;;;;;5091944;28;20040;-62
2022/03/15 02:56:01;;;;;;;11.23;7.43;;;;;;;;;;5093790;28;20069;-61
2022/03/15 02:58:27;;;;;;;10.70;7.28;;;;;;;;;;5094052;28;20547;-62
2022/03/15 03:00:53;;;;;;;13.40;6.85;;;;;;;;;;5093022;28;20040;-61
2022/03/15 03:03:19;;;;;;;21.10;7.45;;;;;;;;;;5084916;28;20084;-62
2022/03/15 03:05:45;;;;;;;34.90;8.45;;;;;;;;;;5092292;28;20036;-61
2022/03/15 03:08:12;;;;;;;10.57;7.28;;;;;;;;;;5093165;28;20119;-61
2022/03/15 03:10:38;;;;;;;10.52;7.13;;;;;;;;;;5087814;28;20502;-62
2022/03/15 03:13:06;;;;;;;9.30;6.68;;;;;;;;;;5102705;28;20043;-62
2022/03/15 03:15:32;;;;;;;10.18;7.30;;;;;;;;;;5072940;28;20101;-61
2022/03/15 03:17:58;;;;;;;12.70;7.57;;;;;;;;;;5089922;28;20413;-61
2022/03/15 03:20:26;;;;;;;14.07;8.23;;;;;;;;;;5093631;28;20085;-61
2022/03/15 03:22:53;;;;;;;16.80;8.40;;;;;;;;;;5092527;28;20055;-61
2022/03/15 03:25:19;;;;;;;19.65;8.68;;;;;;;;;;5092597;28;21225;-62
2022/03/15 03:27:46;;;;;;;40.67;10.52;;;;;;;;;;5086849;28;20028;-61
2022/03/15 03:30:13;;;;;;;16.92;9.48;;;;;;;;;;5092111;28;20040;-62
2022/03/15 03:32:40;;;;;;;12.35;8.88;;;;;;;;;;5093133;28;20070;-62
2022/03/15 03:35:06;;;;;;;12.30;8.68;;;;;;;;;;5081803;28;20150;-61
2022/03/15 03:37:33;;;;;;;12.13;9.18;;;;;;;;;;5089814;28;20040;-61
2022/03/15 03:39:59;;;;;;;11.02;8.45;;;;;;;;;;5093449;28;20036;-61
2022/03/15 03:42:25;;;;;;;13.50;8.45;;;;;;;;;;5092706;28;20052;-61
2022/03/15 03:44:51;;;;;;;12.85;9.10;;;;;;;;;;5092512;28;20127;-61
2022/03/15 03:47:17;;;;;;;12.52;9.32;;;;;;;;;;5093155;28;20505;-61
2022/03/15 03:49:43;;;;;;;11.70;8.57;;;;;;;;;;5093061;28;20046;-61
2022/03/15 03:52:12;;;;;;;11.60;8.60;;;;;;;;;;5092983;28;20497;-62
2022/03/15 03:54:38;;;;;;;10.32;8.45;;;;;;;;;;5092579;28;20044;-62
2022/03/15 03:57:04;;;;;;;12.48;9.48;;;;;;;;;;5093022;28;20098;-61
2022/03/15 03:59:30;;;;;;;10.95;8.20;;;;;;;;;;5091927;28;20032;-61
2022/03/15 04:01:56;;;;;;;9.77;8.65;;;;;;;;;;5090868;28;20044;-62
2022/03/15 04:04:24;;;;;;;12.70;9.48;;;;;;;;;;5092772;28;20060;-62
2022/03/15 04:06:50;;;;;;;13.02;9.50;;;;;;;;;;5089817;28;20040;-62
2022/03/15 04:09:16;;;;;;;11.85;9.27;;;;;;;;;;5085491;28;20089;-62
2022/03/15 04:11:43;;;;;;;16.88;10.65;;;;;;;;;;5087486;28;20043;-61
2022/03/15 04:14:11;;;;;;;17.80;12.18;;;;;;;;;;5084505;28;20118;-61
2022/03/15 04:16:37;;;;;;;21.00;13.00;;;;;;;;;;5092716;28;20086;-62
2022/03/15 04:19:04;;;;;;;22.10;13.55;;;;;;;;;;5089607;28;20504;-61
2022/03/15 04:21:30;;;;;;;30.20;13.25;;;;;;;;;;5092346;28;20036;-61
2022/03/15 04:23:57;;;;;;;18.48;12.45;;;;;;;;;;5092298;28;20040;-61
2022/03/15 04:26:24;;;;;;;13.90;10.95;;;;;;;;;;5093423;28;20119;-62
2022/03/15 04:28:50;;;;;;;14.13;11.02;;;;;;;;;;5092304;28;20425;-62
2022/03/15 04:31:16;;;;;;;14.35;11.38;;;;;;;;;;5093131;28;20037;-62
2022/03/15 04:33:42;;;;;;;14.48;10.70;;;;;;;;;;5091253;28;20044;-61
2022/03/15 04:36:08;;;;;;;15.50;11.00;;;;;;;;;;5092377;28;20066;-61
2022/03/15 04:38:35;;;;;;;16.83;11.23;;;;;;;;;;5091737;28;20169;-61
2022/03/15 04:41:01;;;;;;;18.38;11.70;;;;;;;;;;5092912;28;20039;-62
2022/03/15 04:43:27;;;;;;;18.17;11.50;;;;;;;;;;5091301;28;20044;-61
2022/03/15 04:45:53;;;;;;;16.92;11.80;;;;;;;;;;5092359;28;20493;-61
2022/03/15 04:48:20;;;;;;;21.80;13.35;;;;;;;;;;5091681;28;20035;-62
2022/03/15 04:50:46;;;;;;;18.73;11.27;;;;;;;;;;5092157;28;20054;-62
2022/03/15 04:53:12;;;;;;;18.27;11.70;;;;;;;;;;5091828;28;20044;-62
2022/03/15 04:55:39;;;;;;;18.60;11.25;;;;;;;;;;5091822;28;20533;-62
2022/03/15 04:58:05;;;;;;;18.55;11.45;;;;;;;;;;5090621;28;20046;-61
2022/03/15 05:00:31;;;;;;;24.02;12.38;;;;;;;;;;5089697;28;20135;-62
2022/03/15 05:02:57;;;;;;;24.33;12.98;;;;;;;;;;5084279;28;20504;-61
2022/03/15 05:05:23;;;;;;;15.70;9.63;;;;;;;;;;5089540;28;20032;-61
2022/03/15 05:07:49;;;;;;;17.35;10.10;;;;;;;;;;5088874;28;20101;-62
2022/03/15 05:13:03;;;;;;;15.20;9.50;;;;;;;;;;5091325;28;20052;-61
2022/03/15 05:15:30;;;;;;;19.35;10.68;;;;;;;;;;5091266;28;20032;-62
2022/03/15 05:17:56;;;;;;;17.00;10.73;;;;;;;;;;5091043;28;20047;-62
2022/03/15 05:20:23;;;;;;;19.20;10.30;;;;;;;;;;5080888;28;20040;-62
2022/03/15 05:22:49;;;;;;;19.35;10.10;;;;;;;;;;5092121;28;20073;-62
2022/03/15 05:25:15;;;;;;;17.42;9.05;;;;;;;;;;5089587;28;20136;-61
2022/03/15 05:27:41;;;;;;;17.25;10.18;;;;;;;;;;5090382;28;20489;-62
2022/03/15 05:30:08;;;;;;;21.45;10.60;;;;;;;;;;5091849;28;20069;-61
2022/03/15 05:32:34;;;;;;;20.58;10.80;;;;;;;;;;5090299;28;20052;-62
2022/03/15 05:35:01;;;;;;;17.40;10.63;;;;;;;;;;5091255;22;20131;-62
2022/03/15 05:37:27;;;;;;;15.38;9.80;;;;;;;;;;5070065;28;20036;-62
2022/03/15 05:39:53;;;;;;;17.88;11.23;;;;;;;;;;5071317;28;20032;-62
2022/03/15 05:42:19;;;;;;;19.85;11.88;;;;;;;;;;5070726;28;20119;-62
2022/03/15 05:44:46;;;;;;;20.33;11.82;;;;;;;;;;5081001;28;20131;-62
2022/03/15 05:47:12;;;;;;;37.65;18.50;;;;;;;;;;5089642;28;20055;-61
2022/03/15 05:49:38;;;;;;;32.83;18.08;;;;;;;;;;5090132;28;20159;-62
2022/03/15 05:52:04;;;;;;;31.05;17.63;;;;;;;;;;5090391;28;20044;-62
2022/03/15 05:54:30;;;;;;;33.78;19.60;;;;;;;;;;5079171;28;20142;-62
2022/03/15 05:56:56;;;;;;;37.17;20.48;;;;;;;;;;5091694;28;20378;-62
2022/03/15 05:59:22;;;;;;;50.22;24.85;;;;;;;;;;5090730;28;20036;-61
2022/03/15 06:01:49;;;;;;;43.47;21.15;;;;;;;;;;5078381;28;20097;-61
2022/03/15 06:04:15;;;;;;;42.45;21.70;;;;;;;;;;5080396;28;20070;-62
2022/03/15 06:06:40;;;;;;;40.67;21.80;;;;;;;;;;5091187;28;20063;-62
2022/03/15 06:09:06;;;;;;;38.38;20.25;;;;;;;;;;5090318;28;20567;-62
2022/03/15 06:11:34;;;;;;;56.38;25.30;;;;;;;;;;5091232;28;20036;-59
2022/03/15 06:14:00;;;;;;;47.63;24.13;;;;;;;;;;5090029;28;20044;-59
2022/03/15 06:16:26;;;;;;;54.85;25.98;;;;;;;;;;5091011;28;20044;-60
2022/03/15 06:18:52;;;;;;;49.15;23.42;;;;;;;;;;5090938;28;20036;-59
2022/03/15 06:21:18;;;;;;;50.15;24.27;;;;;;;;;;5092600;28;20473;-59
2022/03/15 06:23:44;;;;;;;44.25;23.65;;;;;;;;;;5094052;28;20040;-59
2022/03/15 06:26:11;;;;;;;53.78;25.17;;;;;;;;;;5094831;28;20440;-59
2022/03/15 06:28:37;;;;;;;47.58;21.50;;;;;;;;;;5095169;28;20210;-59
2022/03/15 06:31:04;;;;;;;42.40;21.73;;;;;;;;;;5094731;28;20454;-59
2022/03/15 06:33:30;;;;;;;45.40;23.65;;;;;;;;;;5094749;28;20075;-59
2022/03/15 06:35:56;;;;;;;40.67;22.38;;;;;;;;;;5076279;28;20089;-59
2022/03/15 06:38:24;;;;;;;57.33;26.77;;;;;;;;;;5094935;28;20039;-59
2022/03/15 06:40:51;;;;;;;45.55;22.50;;;;;;;;;;5094863;28;20078;-59
2022/03/15 06:43:17;;;;;;;42.28;23.27;;;;;;;;;;5093993;28;20486;-60
2022/03/15 06:45:44;;;;;;;42.67;22.63;;;;;;;;;;5093527;28;20039;-61
2022/03/15 06:48:10;;;;;;;53.05;26.30;;;;;;;;;;5076108;28;20096;-60
2022/03/15 06:50:37;;;;;;;52.72;27.65;;;;;;;;;;5094541;28;20075;-61
2022/03/15 06:53:03;;;;;;;49.40;25.17;;;;;;;;;;5095060;28;20039;-61
2022/03/15 06:55:29;;;;;;;51.22;24.52;;;;;;;;;;5092787;28;20529;-61
2022/03/15 06:57:55;;;;;;;52.85;25.70;;;;;;;;;;5094766;28;20391;-61
2022/03/15 07:00:21;;;;;;;45.85;24.25;;;;;;;;;;5094053;28;20521;-61
2022/03/15 07:02:47;;;;;;;53.05;26.77;;;;;;;;;;5070972;28;20051;-60
2022/03/15 07:05:14;;;;;;;50.83;26.00;;;;;;;;;;5090983;28;20040;-61
2022/03/15 07:07:39;;;;;;;49.40;26.35;;;;;;;;;;5087545;28;20036;-60
2022/03/15 07:10:06;;;;;;;54.05;27.02;;;;;;;;;;5094087;28;20409;-61
2022/03/15 07:12:35;;;;;;;47.53;25.85;;;;;;;;;;5094197;28;20520;-61
2022/03/15 07:15:03;;;;;;;54.55;27.85;;;;;;;;;;5080953;28;20046;-61
2022/03/15 07:17:30;;;;;;;53.28;28.02;;;;;;;;;;5086999;28;20158;-61
2022/03/15 07:19:57;;;;;;;54.67;29.25;;;;;;;;;;5093305;28;20039;-61
2022/03/15 07:22:24;;;;;;;70.30;37.60;;;;;;;;;;5083151;28;20047;-61
2022/03/15 07:24:50;;;;;;;58.15;30.38;;;;;;;;;;5093439;28;20036;-61
2022/03/15 07:27:16;;;;;;;137.43;46.47;;;;;;;;;;5094316;28;20040;-60
2022/03/15 07:29:42;;;;;;;55.72;29.52;;;;;;;;;;5090850;28;20472;-61
2022/03/15 07:32:08;;;;;;;104.07;45.92;;;;;;;;;;5093511;28;20051;-61
2022/03/15 07:34:35;;;;;;;61.75;29.58;;;;;;;;;;5092697;28;20044;-61
2022/03/15 07:37:01;;;;;;;60.30;30.90;;;;;;;;;;5092307;28;20051;-61
2022/03/15 07:39:27;;;;;;;69.90;32.80;;;;;;;;;;5072915;28;20037;-61
2022/03/15 07:41:54;;;;;;;55.35;29.73;;;;;;;;;;5084386;28;20415;-61
2022/03/15 07:44:21;;;;;;;67.38;34.03;;;;;;;;;;5090336;28;20532;-61
2022/03/15 07:46:50;;;;;;;64.28;32.08;;;;;;;;;;5071830;28;20042;-61
2022/03/15 07:49:19;;;;;;;61.38;30.08;;;;;;;;;;5086458;28;20044;-61
2022/03/15 07:51:46;;;;;;;58.03;31.30;;;;;;;;;;5081608;28;20390;-61
2022/03/15 07:54:12;;;;;;;61.53;32.08;;;;;;;;;;5092565;28;20093;-61
2022/03/15 07:56:38;;;;;;;60.92;31.10;;;;;;;;;;5093579;28;20409;-61
2022/03/15 07:59:04;;;;;;;53.63;31.08;;;;;;;;;;5093903;28;20036;-60
2022/03/15 08:01:30;;;;;;;60.05;30.98;;;;;;;;;;5092253;28;20036;-61
2022/03/15 08:03:56;;;;;;;62.80;30.95;;;;;;;;;;5091837;28;20028;-61
2022/03/15 08:06:22;;;;;;;60.08;30.95;;;;;;;;;;5093227;28;20409;-60
2022/03/15 08:08:48;;;;;;;60.45;32.95;;;;;;;;;;5091723;28;20058;-61
2022/03/15 08:11:14;;;;;;;55.67;32.10;;;;;;;;;;5081718;28;20051;-61
2022/03/15 08:13:40;;;;;;;53.85;30.95;;;;;;;;;;5088644;28;20044;-61
2022/03/15 08:16:06;;;;;;;56.58;29.90;;;;;;;;;;5092334;28;20036;-61
2022/03/15 08:18:33;;;;;;;52.85;30.02;;;;;;;;;;5091856;28;20485;-61
2022/03/15 08:20:59;;;;;;;56.25;30.13;;;;;;;;;;5080296;28;20028;-60
2022/03/15 08:23:27;;;;;;;51.03;29.23;;;;;;;;;;5091785;28;20413;-61
2022/03/15 08:25:55;;;;;;;50.33;29.00;;;;;;;;;;5092332;28;20059;-61
2022/03/15 08:28:21;;;;;;;50.08;28.80;;;;;;;;;;5089072;28;20044;-61
2022/03/15 08:30:47;;;;;;;49.28;29.05;;;;;;;;;;5086062;28;20054;-61
2022/03/15 08:33:13;;;;;;;52.95;30.50;;;;;;;;;;5093028;28;20443;-61
2022/03/15 08:35:39;;;;;;;54.58;29.80;;;;;;;;;;5091875;28;20067;-61
2022/03/15 08:38:05;;;;;;;58.92;31.38;;;;;;;;;;5092472;28;20040;-61
2022/03/15 08:40:32;;;;;;;52.95;29.50;;;;;;;;;;5092069;28;20065;-61
2022/03/15 08:42:58;;;;;;;54.05;30.05;;;;;;;;;;5092338;28;20087;-61
2022/03/15 08:45:24;;;;;;;59.25;32.45;;;;;;;;;;5091140;28;20501;-61
2022/03/15 08:47:52;;;;;;;48.10;29.25;;;;;;;;;;5074439;28;20093;-61
2022/03/15 08:50:19;;;;;;;55.08;30.73;;;;;;;;;;5092807;28;20138;-61
2022/03/15 08:52:45;;;;;;;52.83;28.75;;;;;;;;;;5091929;28;20130;-61
2022/03/15 08:55:11;;;;;;;50.72;29.20;;;;;;;;;;5073984;28;20503;-61
2022/03/15 08:57:37;;;;;;;54.42;31.20;;;;;;;;;;5091912;28;20115;-61
2022/03/15 09:00:05;;;;;;;53.53;29.55;;;;;;;;;;5092630;28;20122;-61
2022/03/15 09:02:31;;;;;;;56.88;30.50;;;;;;;;;;5073658;28;20577;-61
2022/03/15 09:04:57;;;;;;;49.00;28.83;;;;;;;;;;5092121;28;20077;-61
2022/03/15 09:07:23;;;;;;;59.97;29.88;;;;;;;;;;5091859;28;20489;-61
2022/03/15 09:09:49;;;;;;;48.28;29.27;;;;;;;;;;5091987;28;20072;-61
2022/03/15 09:12:16;;;;;;;52.60;29.70;;;;;;;;;;5091514;28;20040;-61
2022/03/15 09:14:42;;;;;;;52.67;29.88;;;;;;;;;;5092088;28;20478;-61
2022/03/15 09:17:08;;;;;;;48.92;28.83;;;;;;;;;;5092038;28;20028;-61
2022/03/15 09:19:35;;;;;;;52.38;29.13;;;;;;;;;;5091722;28;20039;-61
2022/03/15 09:22:04;;;;;;;54.58;30.08;;;;;;;;;;5073646;28;20069;-61
2022/03/15 09:24:31;;;;;;;49.35;29.35;;;;;;;;;;5092532;28;20115;-61
2022/03/15 09:26:57;;;;;;;51.97;30.40;;;;;;;;;;5091234;28;20082;-61
2022/03/15 09:29:24;;;;;;;50.35;30.15;;;;;;;;;;5091668;28;20072;-61
2022/03/15 09:31:50;;;;;;;49.88;29.80;;;;;;;;;;5091446;28;20136;-61
2022/03/15 09:34:17;;;;;;;52.83;29.38;;;;;;;;;;5091297;28;20074;-61
2022/03/15 09:36:44;;;;;;;47.30;29.00;;;;;;;;;;5091561;28;20040;-61
2022/03/15 09:39:10;;;;;;;46.92;26.98;;;;;;;;;;5091537;28;20079;-62
2022/03/15 09:41:40;;;;;;;49.63;28.08;;;;;;;;;;5087365;28;20429;-61
2022/03/15 09:44:09;;;;;;;48.10;29.20;;;;;;;;;;5091923;28;20390;-61
2022/03/15 09:46:38;;;;;;;44.72;28.38;;;;;;;;;;5091343;28;20470;-61
2022/03/15 09:49:06;;;;;;;45.75;27.80;;;;;;;;;;5091732;28;20032;-61
2022/03/15 09:51:33;;;;;;;47.30;27.67;;;;;;;;;;5087332;28;20065;-61
2022/03/15 09:53:59;;;;;;;45.33;28.02;;;;;;;;;;5089522;28;20047;-61
2022/03/15 09:56:25;;;;;;;48.58;29.05;;;;;;;;;;5086081;28;20028;-61
2022/03/15 09:58:51;;;;;;;44.92;28.25;;;;;;;;;;5094193;28;20481;-61
2022/03/15 10:01:18;;;;;;;48.97;28.33;;;;;;;;;;5090170;28;20035;-61
2022/03/15 10:03:44;;;;;;;48.38;28.23;;;;;;;;;;5090546;28;20044;-61
2022/03/15 10:06:10;;;;;;;44.90;28.10;;;;;;;;;;5095491;28;20036;-61
2022/03/15 10:08:36;;;;;;;49.88;30.00;;;;;;;;;;5092446;28;20040;-61
2022/03/15 10:11:02;;;;;;;43.38;26.95;;;;;;;;;;5095785;28;20044;-61
2022/03/15 10:13:29;;;;;;;44.97;27.58;;;;;;;;;;5093059;28;20370;-61
2022/03/15 10:15:56;;;;;;;49.60;31.42;;;;;;;;;;5094630;28;20118;-61
2022/03/15 10:18:22;;;;;;;44.47;27.40;;;;;;;;;;5086521;28;20413;-61
2022/03/15 10:20:49;;;;;;;41.47;27.42;;;;;;;;;;5090103;28;20040;-61
2022/03/15 10:23:16;;;;;;;47.38;29.88;;;;;;;;;;5091943;28;20032;-61
2022/03/15 10:25:45;;;;;;;53.40;31.75;;;;;;;;;;5094382;28;20097;-61
2022/03/15 10:28:13;;;;;;;49.97;29.63;;;;;;;;;;5091234;28;20044;-62
2022/03/15 10:30:39;;;;;;;43.63;27.80;;;;;;;;;;5094159;28;20036;-61
2022/03/15 10:33:06;;;;;;;46.60;27.50;;;;;;;;;;5091536;28;20393;-61
2022/03/15 10:35:35;;;;;;;45.28;27.08;;;;;;;;;;5074576;28;20044;-61
2022/03/15 10:38:03;;;;;;;45.20;26.88;;;;;;;;;;5093083;28;20047;-61
2022/03/15 10:40:33;;;;;;;45.20;26.95;;;;;;;;;;5089088;28;20512;-61
2022/03/15 10:43:04;;;;;;;41.47;26.70;;;;;;;;;;5091853;28;20464;-61
2022/03/15 10:45:31;;;;;;;39.83;24.50;;;;;;;;;;5089149;28;20043;-61
2022/03/15 10:47:57;;;;;;;42.97;26.95;;;;;;;;;;5090059;28;20071;-61
2022/03/15 10:50:23;;;;;;;41.25;25.25;;;;;;;;;;5093954;28;20078;-61
2022/03/15 10:52:51;;;;;;;40.08;25.02;;;;;;;;;;5092761;28;20509;-61
2022/03/15 10:55:19;;;;;;;37.55;24.75;;;;;;;;;;5076003;28;20048;-61
2022/03/15 10:57:56;;;;;;;36.35;24.38;;;;;;;;;;5093715;28;20086;-61
2022/03/15 11:00:27;;;;;;;40.08;24.02;;;;;;;;;;5093551;28;20522;-61
2022/03/15 11:02:54;;;;;;;40.42;23.85;;;;;;;;;;5092664;28;20059;-62
2022/03/15 11:05:27;;;;;;;40.92;24.83;;;;;;;;;;5091602;28;20394;-62
2022/03/15 11:07:53;;;;;;;34.50;22.58;;;;;;;;;;5076880;28;20051;-61
2022/03/15 11:10:20;;;;;;;36.47;23.30;;;;;;;;;;5089273;28;20052;-61
2022/03/15 11:12:56;;;;;;;37.97;23.67;;;;;;;;;;5089680;28;20040;-61
2022/03/15 11:15:28;;;;;;;36.42;23.92;;;;;;;;;;5089340;28;20040;-62
2022/03/15 11:17:57;;;;;;;38.72;23.85;;;;;;;;;;5088224;28;20119;-62
2022/03/15 11:20:23;;;;;;;34.88;22.30;;;;;;;;;;5089409;28;20081;-62
2022/03/15 11:22:52;;;;;;;34.97;22.77;;;;;;;;;;5082931;28;20058;-62
2022/03/15 11:25:21;;;;;;;34.60;23.35;;;;;;;;;;5092277;28;20035;-62
2022/03/15 11:27:47;;;;;;;36.70;22.90;;;;;;;;;;5092029;28;20425;-62
2022/03/15 11:30:15;;;;;;;35.55;22.83;;;;;;;;;;5089986;28;20043;-62
2022/03/15 11:32:41;;;;;;;36.17;22.85;;;;;;;;;;5091853;28;20032;-62
2022/03/15 11:35:08;;;;;;;142.80;30.20;;;;;;;;;;5104565;22;20051;-62
2022/03/15 11:37:35;;;;;;;32.22;21.45;;;;;;;;;;5091676;28;20508;-62
2022/03/15 11:40:04;;;;;;;32.65;21.30;;;;;;;;;;5085730;28;20138;-62
2022/03/15 11:42:31;;;;;;;34.88;20.63;;;;;;;;;;5085321;28;20068;-62
2022/03/15 11:45:16;;;;;;;33.75;22.48;;;;;;;;;;5087438;28;20047;-61
2022/03/15 11:47:52;;;;;;;32.72;21.35;;;;;;;;;;5089423;28;20040;-62
2022/03/15 11:50:26;;;;;;;34.10;20.92;;;;;;;;;;5090138;28;20063;-61
2022/03/15 11:53:12;;;;;;;32.38;20.30;;;;;;;;;;5096709;28;20500;-62
2022/03/15 11:55:57;;;;;;;33.03;21.30;;;;;;;;;;5084424;28;20531;-62
2022/03/15 11:58:24;;;;;;;31.60;20.35;;;;;;;;;;5067454;28;20064;-62
2022/03/15 12:00:50;;;;;;;33.03;20.83;;;;;;;;;;5084546;28;20044;-62
2022/03/15 12:03:18;;;;;;;33.08;21.45;;;;;;;;;;5089856;28;20093;-62
2022/03/15 12:05:46;;;;;;;31.40;21.00;;;;;;;;;;5084833;28;20497;-62
2022/03/15 12:08:16;;;;;;;30.98;19.55;;;;;;;;;;5092043;28;20040;-62
2022/03/15 12:10:47;;;;;;;30.95;19.75;;;;;;;;;;5086178;28;20036;-62
2022/03/15 12:13:14;;;;;;;;;;;;;;;;;;5093004;28;20044;-62
2022/03/15 12:15:42;;;;;;;36.15;20.42;;;;;;;;;;5092400;28;19985;-61
2022/03/15 12:18:23;;;;;;;34.15;20.67;;;;;;;;;;5088681;28;20079;-62
2022/03/15 12:20:55;;;;;;;33.92;19.30;;;;;;;;;;5092197;28;20040;-62
2022/03/15 12:23:22;;;;;;;31.85;18.77;;;;;;;;;;5093086;28;20052;-62
2022/03/15 12:25:53;;;;;;;29.23;18.27;;;;;;;;;;5090955;28;20548;-62
2022/03/15 12:28:26;;;;;;;29.95;18.52;;;;;;;;;;5091036;28;20079;-61
2022/03/15 12:30:53;;;;;;;29.65;18.55;;;;;;;;;;5092537;28;20051;-62
2022/03/15 12:33:26;;;;;;;32.75;18.23;;;;;;;;;;5093028;28;20044;-62
2022/03/15 12:35:58;;;;;;;31.92;18.70;;;;;;;;;;5092499;28;20036;-62
2022/03/15 12:38:31;;;;;;;29.20;17.45;;;;;;;;;;5092130;28;20043;-62
2022/03/15 12:40:57;;;;;;;30.20;17.88;;;;;;;;;;5084810;28;20032;-62
2022/03/15 12:43:23;;;;;;;30.38;18.85;;;;;;;;;;5090234;28;20321;-62
2022/03/15 12:45:50;;;;;;;27.73;17.60;;;;;;;;;;5092280;28;20119;-62
2022/03/15 12:48:29;;;;;;;27.75;16.48;;;;;;;;;;5092379;28;20405;-61
2022/03/15 12:50:58;;;;;;;25.15;16.70;;;;;;;;;;5092096;28;20105;-62
2022/03/15 12:53:41;;;;;;;26.55;16.55;;;;;;;;;;5092357;28;20044;-62
2022/03/15 12:56:09;;;;;;;27.30;15.55;;;;;;;;;;5092352;28;20401;-62
2022/03/15 12:58:35;;;;;;;26.20;15.32;;;;;;;;;;5091834;28;20111;-61
2022/03/15 13:01:03;;;;;;;26.10;15.80;;;;;;;;;;5087481;28;20051;-62
2022/03/15 13:03:29;;;;;;;27.42;16.73;;;;;;;;;;5091673;28;20039;-62
2022/03/15 13:05:57;;;;;;;28.33;17.10;;;;;;;;;;5083390;28;20439;-62
2022/03/15 13:08:24;;;;;;;26.00;16.80;;;;;;;;;;5092182;28;20047;-62
2022/03/15 13:10:52;;;;;;;30.13;17.25;;;;;;;;;;5091413;28;20044;-62
2022/03/15 13:13:18;;;;;;;25.70;15.90;;;;;;;;;;5092028;28;20119;-62
2022/03/15 13:15:51;;;;;;;26.10;15.27;;;;;;;;;;5090393;28;20446;-62
2022/03/15 13:18:17;;;;;;;25.58;16.23;;;;;;;;;;5090781;28;20047;-62
2022/03/15 13:20:43;;;;;;;22.50;14.15;;;;;;;;;;5091571;28;20041;-62
2022/03/15 13:23:09;;;;;;;26.20;14.18;;;;;;;;;;5092373;28;20405;-62
2022/03/15 13:25:43;;;;;;;23.30;14.13;;;;;;;;;;5091414;28;20036;-62
2022/03/15 13:28:21;;;;;;;24.38;13.40;;;;;;;;;;5091061;28;20040;-62
2022/03/15 13:30:49;;;;;;;24.45;13.82;;;;;;;;;;5090896;28;20059;-62
2022/03/15 13:33:30;;;;;;;22.05;12.95;;;;;;;;;;5091227;28;20078;-62
2022/03/15 13:36:18;;;;;;;22.70;12.30;;;;;;;;;;5091678;28;20061;-62
2022/03/15 13:38:45;;;;;;;22.83;12.75;;;;;;;;;;5079264;28;20044;-62
2022/03/15 13:41:13;;;;;;;21.60;12.63;;;;;;;;;;5086825;28;20040;-62
2022/03/15 13:43:42;;;;;;;23.25;13.02;;;;;;;;;;5090814;28;20077;-62
2022/03/15 13:46:08;;;;;;;22.55;12.40;;;;;;;;;;5091390;28;20039;-62
2022/03/15 13:48:36;;;;;;;22.33;12.13;;;;;;;;;;5091472;28;20042;-62
2022/03/15 13:51:06;;;;;;;18.75;12.45;;;;;;;;;;5091085;28;20526;-62
2022/03/15 13:53:32;;;;;;;22.80;12.40;;;;;;;;;;5090147;28;20040;-62
2022/03/15 13:56:11;;;;;;;20.88;11.93;;;;;;;;;;5091178;28;20392;-62
2022/03/15 13:58:38;;;;;;;19.33;11.43;;;;;;;;;;5079873;28;20409;-62
2022/03/15 14:01:05;;;;;;;18.05;10.25;;;;;;;;;;5074494;28;20044;-62
2022/03/15 14:03:33;;;;;;;19.38;10.77;;;;;;;;;;5083209;28;20036;-62
2022/03/15 14:06:00;;;;;;;17.08;10.15;;;;;;;;;;5090299;28;20044;-62
2022/03/15 14:08:26;;;;;;;22.08;9.93;;;;;;;;;;5091215;28;20044;-61
2022/03/15 14:10:54;;;;;;;18.20;11.65;;;;;;;;;;5089431;28;20086;-63
2022/03/15 14:13:28;;;;;;;18.38;11.30;;;;;;;;;;5088426;28;20040;-62
2022/03/15 14:15:59;;;;;;;19.40;11.90;;;;;;;;;;5090975;28;20047;-62
2022/03/15 14:18:26;;;;;;;19.30;11.20;;;;;;;;;;5089343;28;20115;-62
2022/03/15 14:20:52;;;;;;;21.75;11.18;;;;;;;;;;5089644;28;20097;-62
2022/03/15 14:23:18;;;;;;;23.52;11.65;;;;;;;;;;5091412;28;20089;-61
2022/03/15 14:25:45;;;;;;;18.27;10.00;;;;;;;;;;5091588;28;20047;-61